Latest Weather Observations for PORTABLE RFSNSW51

IDN60801

Issued at 9:12 pm EDT Monday 25 March 2019 (issued every 10 minutes, with the page automatically refreshed every 10 minutes)

About weather observations | Map of weather stations | Latest weather observations for NSW | Other Formats
Station Details ID: 250098 Name: PORTABLE RFSNSW51 Lat: -35.49 Lon: 146.97 Height: 228.0 m
Data from the previous 72 hours. | See also: Recent months for locations in New South Wales
Date/Time
EDT
Temp
°C
App
Temp
°C
Dew
Point
°C
Rel
Hum
%
Delta-T
°C
Wind Press
QNH
hPa
Press
MSL
hPa
Rain since
9am
mm
Dir  Spd
km/h
Gust
km/h
Spd
kts
Gust
kts
25/09:00pm 15.0 12.0 5.9 54 4.4 SW 11 11 6 6 - - 2.2
25/08:50pm 15.2 12.2 6.0 54 4.5 SW 11 13 6 7 - - 2.2
25/08:40pm 15.5 13.0 6.6 55 4.4 SW 9 9 5 5 - - 2.2
25/08:30pm 15.7 12.9 6.8 55 4.4 SW 11 13 6 7 - - 2.2
25/08:20pm 15.8 12.5 6.2 53 4.7 SW 13 13 7 7 - - 2.2
25/08:10pm 15.9 13.8 6.8 54 4.5 WSW 7 9 4 5 - - 2.2
25/08:00pm 17.1 15.1 6.3 49 5.4 W 6 7 3 4 - - 2.2
25/07:50pm 17.2 14.8 4.2 42 6.2 W 6 7 3 4 - - 2.2
25/07:40pm 17.2 15.1 5.6 46 5.7 W 6 7 3 4 - - 2.2
25/07:30pm 17.5 14.8 5.4 45 5.9 WSW 9 11 5 6 - - 2.2
25/07:20pm 17.8 14.6 5.0 43 6.2 WSW 11 11 6 6 - - 2.2
25/07:10pm 18.2 14.7 5.4 43 6.3 WSW 13 15 7 8 - - 2.2
25/07:00pm 18.6 14.1 4.3 38 6.9 W 17 20 9 11 - - 2.2
25/06:50pm 18.8 13.9 5.3 41 6.6 W 20 24 11 13 - - 2.2
25/06:40pm 19.1 14.4 5.3 40 6.8 WSW 19 22 10 12 - - 2.2
25/06:30pm 19.3 14.6 5.1 39 7.0 WSW 19 22 10 12 - - 2.2
25/06:20pm 19.6 14.4 5.6 40 7.0 WSW 22 26 12 14 - - 2.2
25/06:10pm 20.1 15.4 5.0 37 7.5 WSW 19 28 10 15 - - 2.2
25/06:00pm 20.1 14.8 5.0 37 7.5 WSW 22 30 12 16 - - 2.2
25/05:50pm 20.3 14.7 5.6 38 7.4 WSW 24 30 13 16 - - 2.2
25/05:40pm 20.7 15.9 5.8 37 7.5 WSW 20 24 11 13 - - 2.2
25/05:30pm 20.7 15.4 6.7 40 7.2 WSW 24 28 13 15 - - 2.2
25/05:20pm 20.8 15.0 6.1 38 7.4 WSW 26 35 14 19 - - 2.2
25/05:00pm 20.4 15.2 7.2 42 6.8 WSW 24 30 13 16 - - 2.2
25/04:50pm 21.0 16.0 7.9 43 6.9 WSW 24 33 13 18 - - 2.2
25/04:40pm 20.6 16.4 8.1 44 6.6 WSW 20 28 11 15 - - 2.2
25/04:30pm 20.1 15.9 8.4 47 6.2 WSW 20 30 11 16 - - 2.2
25/04:20pm 20.2 17.1 8.9 48 6.0 W 15 17 8 9 - - 2.2
25/04:10pm 20.3 16.5 9.9 51 5.6 WSW 20 24 11 13 - - 2.2
25/04:00pm 20.4 16.4 9.1 48 6.0 W 20 24 11 13 - - 2.2
25/03:50pm 20.0 15.0 9.7 51 5.6 WSW 26 32 14 17 - - 2.2
25/03:40pm 20.3 16.5 9.7 50 5.7 W 20 26 11 14 - - 2.2
25/03:30pm 20.5 16.4 10.0 51 5.7 WSW 22 26 12 14 - - 2.2
25/03:20pm 20.0 16.5 10.3 53 5.3 W 19 20 10 11 - - 2.2
25/03:10pm 19.6 16.1 10.3 55 5.1 W 19 20 10 11 - - 2.2
25/03:00pm 20.0 16.4 10.6 54 5.2 W 20 28 11 15 - - 2.2
25/02:50pm 19.8 16.3 10.1 53 5.3 W 19 26 10 14 - - 2.2
25/02:40pm 19.6 16.6 10.6 56 4.9 W 17 22 9 12 - - 2.2
25/02:30pm 19.3 16.1 11.1 59 4.5 W 19 24 10 13 - - 2.2
25/02:20pm 18.8 15.3 10.2 57 4.7 W 19 22 10 12 - - 2.2
25/02:10pm 18.9 15.1 11.1 60 4.3 W 22 26 12 14 - - 2.2
25/02:00pm 18.9 16.0 11.0 60 4.3 W 17 22 9 12 - - 2.2
25/01:50pm 18.2 16.1 11.1 63 3.9 W 13 22 7 12 - - 2.2
25/01:40pm 17.7 15.9 12.1 69 3.1 W 13 17 7 9 - - 2.2
25/01:30pm 17.5 14.7 11.2 66 3.4 W 17 20 9 11 - - 2.2
25/01:20pm 17.5 14.4 11.5 68 3.3 W 19 20 10 11 - - 2.2
25/01:10pm 17.5 14.1 11.4 67 3.4 WNW 20 26 11 14 - - 2.2
25/01:00pm 17.6 15.9 12.6 72 2.8 W 13 17 7 9 - - 2.2
25/12:50pm 17.3 15.8 13.0 76 2.4 W 13 17 7 9 - - 2.2
25/12:40pm 17.0 15.1 12.9 77 2.3 W 15 19 8 10 - - 2.2
25/12:30pm 16.9 14.1 12.7 76 2.4 W 19 24 10 13 - - 2.2
25/12:20pm 16.9 15.5 13.5 80 1.9 WNW 13 17 7 9 - - 2.2
25/12:10pm 16.6 15.8 13.9 84 1.5 W 11 13 6 7 - - 2.2
25/12:00pm 16.5 15.6 13.7 83 1.6 W 11 13 6 7 - - 2.2
25/11:50am 16.3 15.7 13.6 84 1.5 W 9 15 5 8 - - 2.2
25/11:40am 16.0 15.5 13.8 87 1.3 W 9 11 5 6 - - 2.2
25/11:30am 15.8 15.3 13.9 88 1.1 W 9 11 5 6 - - 2.2
25/11:20am 15.7 14.9 13.9 89 1.0 W 11 17 6 9 - - 2.2
25/11:10am 15.6 14.0 13.8 89 1.0 W 15 19 8 10 - - 2.0
25/11:00am 15.5 13.6 14.1 91 0.8 W 17 19 9 10 - - 2.0
25/10:50am 15.6 13.4 14.3 92 0.7 WSW 19 20 10 11 - - 1.2
25/10:40am 15.7 12.9 14.4 92 0.7 W 22 32 12 17 - - 1.0
25/10:30am 18.2 14.5 15.9 86 1.4 WNW 30 41 16 22 - - 0.4
25/10:20am 19.9 16.8 16.6 81 2.0 NW 28 32 15 17 - - 0.0
25/10:10am 19.8 17.5 16.6 82 1.9 NW 24 30 13 16 - - 0.0
25/10:00am 19.7 17.0 16.6 82 1.9 NW 26 30 14 16 - - 0.2
25/09:50am 19.5 17.2 16.6 83 1.8 NW 24 30 13 16 - - 0.2
25/09:40am 19.4 16.4 16.7 84 1.6 NW 28 32 15 17 - - 0.2
25/09:30am 19.3 17.1 16.8 85 1.5 NW 24 32 13 17 - - 0.2
25/09:20am 19.2 17.8 16.9 86 1.4 NW 20 26 11 14 - - 0.2
25/09:10am 19.1 17.7 16.9 87 1.3 NW 20 26 11 14 - - 0.2
25/09:00am 19.0 17.1 16.8 87 1.3 NNW 22 28 12 15 - - 0.2
25/08:50am 18.9 17.1 16.9 88 1.2 NNW 22 26 12 14 - - 0.2
25/08:40am 18.7 17.3 16.9 89 1.1 NNW 20 20 11 11 - - 0.2
25/08:30am 18.6 17.2 17.0 90 1.0 NNW 20 26 11 14 - - 0.2
25/08:20am 18.5 16.7 16.9 90 1.0 NNW 22 26 12 14 - - 0.2
25/08:00am 18.1 16.3 16.9 93 0.7 NNW 22 26 12 14 - - 0.2
25/07:50am 18.1 15.9 17.0 93 0.7 NNW 24 30 13 16 - - 0.2
25/07:40am 18.0 15.8 16.9 93 0.7 NNW 24 30 13 16 - - 0.2
25/07:30am 18.0 16.2 17.0 94 0.6 NNW 22 24 12 13 - - 0.2
25/07:20am 18.1 16.3 17.0 93 0.7 NNW 22 26 12 14 - - 0.2
25/07:10am 18.3 16.1 16.9 91 0.9 NNW 24 28 13 15 - - 0.2
25/07:00am 18.3 16.1 17.0 92 0.8 NNW 24 30 13 16 - - 0.0
25/06:50am 18.6 16.5 17.2 91 0.9 NNW 24 32 13 17 - - 0.0
25/06:40am 19.3 17.9 17.1 87 1.3 NNW 20 22 11 12 - - 0.0
25/06:30am 19.6 18.2 17.1 85 1.5 NNW 20 24 11 13 - - 0.0
25/06:20am 19.9 18.5 17.1 84 1.7 NNW 20 26 11 14 - - 0.0
25/06:10am 20.0 17.8 17.0 83 1.8 NNW 24 28 13 15 - - 0.0
25/06:00am 20.1 17.6 17.0 82 1.9 NNW 26 30 14 16 - - 0.0
25/05:50am 20.1 18.4 17.1 83 1.8 NNW 22 24 12 13 - - 0.0
25/05:40am 20.1 18.0 17.2 83 1.8 NNW 24 28 13 15 - - 0.0
25/05:30am 20.2 18.5 17.1 82 1.9 NW 22 26 12 14 - - 0.0
25/05:20am 20.2 18.0 17.0 82 2.0 NNW 24 28 13 15 - - 0.0
25/05:10am 20.0 18.9 17.2 84 1.7 NNW 19 26 10 14 - - 0.0
25/05:00am 19.8 19.1 17.4 86 1.5 NNW 17 19 9 10 - - 0.0
25/04:50am 19.8 19.2 17.5 86 1.4 N 17 19 9 10 - - 0.0
25/04:40am 19.7 19.1 17.5 87 1.4 N 17 17 9 9 - - 0.0
25/04:30am 19.7 19.1 17.5 87 1.4 N 17 20 9 11 - - 0.0
25/04:20am 19.7 18.7 17.5 87 1.4 N 19 20 10 11 - - 0.0
25/04:10am 19.6 19.0 17.5 88 1.3 N 17 19 9 10 - - 0.0
25/04:00am 19.6 19.0 17.6 88 1.2 N 17 20 9 11 - - 0.0
25/03:50am 19.6 19.4 17.6 88 1.2 N 15 17 8 9 - - 0.0
25/03:40am 19.5 19.3 17.6 89 1.2 N 15 17 8 9 - - 0.0
25/03:30am 19.5 18.9 17.6 89 1.2 N 17 19 9 10 - - 0.0
25/03:20am 19.6 18.5 17.7 89 1.2 N 20 24 11 13 - - 0.0
25/03:10am 19.7 18.7 17.5 87 1.4 N 19 22 10 12 - - 0.0
25/03:00am 19.8 19.2 17.5 86 1.4 N 17 19 9 10 - - 0.0
25/02:50am 19.8 19.2 17.5 86 1.4 N 17 19 9 10 - - 0.0
25/02:40am 19.8 19.2 17.5 86 1.4 N 17 20 9 11 - - 0.0
25/02:30am 19.9 19.7 17.5 86 1.5 N 15 20 8 11 - - 0.0
25/02:20am 19.8 19.5 17.4 86 1.5 N 15 17 8 9 - - 0.0
25/02:10am 19.8 19.9 17.5 86 1.4 N 13 15 7 8 - - 0.0
25/02:00am 19.9 19.2 17.4 85 1.5 N 17 20 9 11 - - 0.0
25/01:50am 19.9 19.6 17.3 85 1.6 N 15 20 8 11 - - 0.0
25/01:40am 19.9 19.2 17.3 85 1.6 N 17 20 9 11 - - 0.0
25/01:30am 19.9 19.2 17.4 85 1.5 N 17 19 9 10 - - 0.0
25/01:20am 20.1 19.0 17.3 84 1.7 N 19 20 10 11 - - 0.0
25/01:10am 20.2 19.1 17.3 83 1.8 NNW 19 20 10 11 - - 0.0
25/01:00am 20.2 18.1 17.1 82 1.9 NNW 24 28 13 15 - - 0.0
25/12:50am 20.1 19.0 17.2 83 1.8 N 19 24 10 13 - - 0.0
25/12:40am 20.0 19.3 17.4 85 1.6 NNW 17 19 9 10 - - 0.0
25/12:30am 19.9 19.7 17.5 86 1.5 N 15 17 8 9 - - 0.0
25/12:20am 20.0 19.7 17.4 85 1.6 N 15 17 8 9 - - 0.0
25/12:10am 20.0 19.4 17.5 85 1.5 - 17 20 9 11 - - 0.0
25/12:00am 20.0 19.8 17.5 85 1.5 N 15 19 8 10 - - 0.0
 
Date/Time
EDT
Temp
°C
App
Temp
°C
Dew
Point
°C
Rel
Hum
%
Delta-T
°C
Wind Press
QNH
hPa
Press
MSL
hPa
Rain since
9am
mm
Dir  Spd
km/h
Gust
km/h
Spd
kts
Gust
kts
24/11:50pm 20.1 19.5 17.5 85 1.6 N 17 20 9 11 - - 0.0
24/11:40pm 20.1 19.0 17.4 84 1.7 - 19 20 10 11 - - 0.0
24/11:30pm 20.1 19.1 17.5 85 1.6 N 19 24 10 13 - - 0.0
24/11:20pm 20.0 19.0 17.6 86 1.5 N 19 22 10 12 - - 0.0
24/11:10pm 20.2 19.5 17.4 84 1.7 N 17 19 9 10 - - 0.0
24/11:00pm 20.3 19.2 17.2 82 1.9 N 19 22 10 12 - - 0.0
24/10:50pm 20.4 19.7 17.3 82 1.9 N 17 20 9 11 - - 0.0
24/10:40pm 20.4 19.3 17.2 82 2.0 N 19 22 10 12 - - 0.0
24/10:30pm 20.6 19.3 17.2 81 2.1 NNW 20 24 11 13 - - 0.0
24/10:20pm 20.7 19.4 17.3 81 2.1 NNW 20 24 11 13 - - 0.0
24/10:10pm 20.9 19.6 17.2 79 2.3 NNW 20 24 11 13 - - 0.0
24/10:00pm 21.1 19.8 17.3 79 2.4 NNW 20 22 11 12 - - 0.0
24/09:50pm 21.3 20.5 17.2 77 2.5 N 17 19 9 10 - - 0.0
24/09:40pm 21.5 20.3 17.0 75 2.8 N 19 24 10 13 - - 0.0
24/09:30pm 21.7 20.3 16.9 74 3.0 NNW 20 24 11 13 - - 0.0
24/09:20pm 22.0 19.8 16.8 72 3.2 NNW 24 28 13 15 - - 0.0
24/09:10pm 22.2 19.9 16.7 71 3.4 NNW 24 28 13 15 - - 0.0
24/09:00pm 22.5 20.9 16.4 68 3.7 NNW 20 24 11 13 - - 0.0
24/08:50pm 22.5 21.1 16.5 69 3.7 NW 19 22 10 12 - - 0.0
24/08:40pm 22.6 21.8 17.0 70 3.5 NW 17 22 9 12 - - 0.0
24/08:30pm 22.7 21.6 17.2 71 3.4 NW 19 20 10 11 - - 0.0
24/08:20pm 23.1 22.3 17.1 69 3.7 NW 17 20 9 11 - - 0.0
24/08:10pm 23.3 21.8 16.7 66 4.1 N 20 24 11 13 - - 0.0
24/08:00pm 23.4 22.1 16.7 66 4.1 N 19 20 10 11 - - 0.0
24/07:50pm 23.5 22.1 16.5 65 4.3 N 19 22 10 12 - - 0.0
24/07:40pm 23.8 22.1 16.3 63 4.6 NNW 20 20 11 11 - - 0.0
24/07:30pm 24.0 22.4 16.0 61 4.9 NNW 19 20 10 11 - - 0.0
24/07:20pm 24.2 22.0 15.9 59 5.1 NNW 22 26 12 14 - - 0.0
24/07:10pm 24.5 22.0 16.1 59 5.2 NNW 24 26 13 14 - - 0.0
24/07:00pm 24.8 23.0 16.0 58 5.4 NNW 20 24 11 13 - - 0.0
24/06:50pm 25.0 22.4 15.8 56 5.6 NNW 24 28 13 15 - - 0.0
24/06:40pm 25.2 23.3 15.8 56 5.8 NW 20 32 11 17 - - 0.0
24/06:30pm 25.3 23.3 15.6 55 5.9 NW 20 24 11 13 - - 0.0
24/06:20pm 25.5 23.4 15.3 53 6.2 NW 20 24 11 13 - - 0.0
24/06:10pm 25.6 23.1 15.2 52 6.3 NNW 22 28 12 15 - - 0.0
24/06:00pm 25.7 23.8 15.2 52 6.4 NNW 19 22 10 12 - - 0.0
24/05:50pm 25.8 24.3 15.3 52 6.4 NNW 17 22 9 12 - - 0.0
24/05:40pm 25.9 24.4 15.3 52 6.5 NNW 17 22 9 12 - - 0.0
24/05:30pm 25.9 24.3 15.1 51 6.6 NNW 17 20 9 11 - - 0.0
24/05:20pm 25.8 24.7 15.3 52 6.4 NNW 15 20 8 11 - - 0.0
24/05:10pm 25.8 23.9 15.1 51 6.5 NNW 19 22 10 12 - - 0.0
24/05:00pm 25.8 24.1 14.8 50 6.7 NNW 17 20 9 11 - - 0.0
24/04:50pm 25.9 23.9 14.9 50 6.7 NNW 19 20 10 11 - - 0.0
24/04:40pm 25.9 23.8 14.6 49 6.8 NNW 19 22 10 12 - - 0.0
24/04:30pm 25.9 24.1 15.4 52 6.4 NNW 19 24 10 13 - - 0.0
24/04:20pm 26.1 24.3 15.6 52 6.4 NNW 19 22 10 12 - - 0.0
24/04:10pm 26.0 24.5 16.2 54 6.1 NNW 19 22 10 12 - - 0.0
24/04:00pm 26.0 24.2 15.6 52 6.4 NNW 19 22 10 12 - - 0.0
24/03:50pm 25.9 25.2 17.3 59 5.4 NNW 17 19 9 10 - - 0.0
24/03:40pm 25.6 24.5 17.2 59 5.3 N 19 22 10 12 - - 0.0
24/03:30pm 25.5 24.7 17.0 59 5.3 N 17 20 9 11 - - 0.0
24/03:20pm 25.6 24.5 17.4 60 5.2 N 19 24 10 13 - - 0.0
24/03:10pm 25.8 24.5 17.2 59 5.4 N 20 24 11 13 - - 0.0
24/03:00pm 25.9 24.8 17.3 59 5.4 N 19 22 10 12 - - 0.0
24/02:50pm 25.7 24.9 17.1 59 5.4 NNE 17 20 9 11 - - 0.0
24/02:40pm 25.2 24.5 17.4 62 4.9 N 17 20 9 11 - - 0.0
24/02:30pm 25.2 24.1 17.3 61 5.0 N 19 20 10 11 - - 0.0
24/02:20pm 25.5 24.5 17.6 61 5.0 N 19 20 10 11 - - 0.0
24/02:10pm 25.5 24.5 17.6 61 5.0 NNE 19 24 10 13 - - 0.0
24/02:00pm 25.1 23.9 17.1 61 5.0 NNE 19 24 10 13 - - 0.0
24/01:50pm 25.6 25.0 17.5 61 5.1 NNE 17 20 9 11 - - 0.0
24/01:40pm 25.8 25.7 16.9 58 5.6 NNE 13 20 7 11 - - 0.0
24/01:30pm 25.9 25.6 17.3 59 5.4 N 15 22 8 12 - - 0.0
24/01:20pm 25.7 25.2 16.8 58 5.6 N 15 20 8 11 - - 0.0
24/01:10pm 25.4 24.5 16.9 59 5.3 N 17 19 9 10 - - 0.0
24/01:00pm 25.3 25.1 17.6 62 4.9 NNE 15 19 8 10 - - 0.0
24/12:50pm 25.1 25.2 17.5 62 4.8 N 13 17 7 9 - - 0.0
24/12:40pm 24.7 25.0 18.0 66 4.2 NNW 13 19 7 10 - - 0.0
24/12:30pm 24.5 24.7 16.8 62 4.8 N 11 17 6 9 - - 0.0
24/12:20pm 24.5 25.1 17.6 65 4.3 NNW 11 15 6 8 - - 0.0
24/12:10pm 24.4 24.8 17.2 64 4.5 NNW 11 15 6 8 - - 0.0
24/12:00pm 24.2 24.7 16.5 62 4.8 NNW 9 13 5 7 - - 0.0
24/11:50am 23.6 24.3 17.1 67 4.0 NNW 9 15 5 8 - - 0.0
24/11:40am 23.4 23.9 16.5 65 4.3 NNW 9 13 5 7 - - 0.0
24/11:30am 22.8 23.2 16.4 67 3.9 NNW 9 15 5 8 - - 0.0
24/11:20am 22.6 22.1 16.8 69 3.6 N 15 17 8 9 - - 0.0
24/11:10am 22.3 21.8 16.9 71 3.3 NNW 15 19 8 10 - - 0.0
24/11:00am 22.4 22.8 17.3 73 3.2 NNW 11 15 6 8 - - 0.0
24/10:50am 22.3 22.5 16.7 70 3.4 NW 11 15 6 8 - - 0.0
24/10:40am 22.2 22.2 16.2 69 3.7 NNW 11 13 6 7 - - 0.0
24/10:30am 21.4 21.1 16.4 73 3.1 NNW 13 17 7 9 - - 0.0
24/10:20am 21.3 21.3 16.3 73 3.0 N 11 15 6 8 - - 0.0
24/10:10am 21.0 21.3 16.9 77 2.5 NNW 11 13 6 7 - - 0.0
24/10:00am 20.7 21.2 16.5 77 2.6 NNW 9 13 5 7 - - 4.6
24/09:50am 20.0 20.5 16.5 80 2.1 - 9 11 5 6 - - 4.6
24/09:40am 19.3 20.2 16.7 85 1.6 N 7 9 4 5 - - 4.6
24/09:30am 18.9 19.7 16.4 85 1.5 N 7 9 4 5 - - 4.6
24/09:20am 18.9 19.7 16.4 85 1.5 N 7 9 4 5 - - 4.6
24/09:10am 18.4 18.8 16.2 87 1.3 N 9 11 5 6 - - 4.6
24/09:00am 18.0 18.8 16.3 90 1.0 N 7 9 4 5 - - 4.6
24/08:50am 17.8 18.7 16.1 90 1.0 N 6 9 3 5 - - 4.6
24/08:40am 17.6 18.3 16.2 91 0.8 NNE 7 9 4 5 - - 4.6
24/08:30am 17.4 17.7 15.9 91 0.9 NE 9 11 5 6 - - 4.6
24/08:20am 17.2 17.8 15.7 91 0.9 ENE 7 11 4 6 - - 4.6
24/08:10am 17.0 17.7 15.7 92 0.8 NE 6 7 3 4 - - 4.6
24/08:00am 17.0 17.6 15.7 92 0.8 ENE 7 9 4 5 - - 4.6
24/07:50am 16.9 17.1 15.7 93 0.7 NE 9 9 5 5 - - 4.6
24/07:40am 16.9 17.6 15.6 92 0.8 ENE 6 7 3 4 - - 4.6
24/07:30am 16.9 18.1 15.8 93 0.7 E 4 6 2 3 - - 4.4
24/07:20am 17.0 18.1 15.6 91 0.8 S 4 4 2 2 - - 4.4
24/07:00am 17.1 18.2 15.5 90 0.9 S 4 4 2 2 - - 3.8
24/06:50am 17.2 18.2 15.4 89 1.1 S 4 4 2 2 - - 3.6
24/06:40am 17.3 18.2 15.1 87 1.3 SW 4 6 2 3 - - 3.2
24/06:30am 17.7 18.0 15.0 84 1.6 W 7 11 4 6 - - 2.6
24/06:20am 18.3 18.1 14.8 80 2.1 WSW 9 11 5 6 - - 1.6
24/06:10am 18.6 18.5 15.0 79 2.1 WSW 9 11 5 6 - - 1.4
24/06:00am 18.9 18.9 15.1 78 2.2 W 9 13 5 7 - - 1.2
24/05:50am 19.0 18.8 14.7 76 2.5 W 9 13 5 7 - - 1.0
24/05:40am 19.2 19.6 15.4 78 2.3 WNW 7 9 4 5 - - 0.8
24/05:30am 19.5 20.0 15.6 78 2.3 WNW 7 7 4 4 - - 0.6
24/05:20am 20.0 20.1 15.4 75 2.7 WNW 9 11 5 6 - - 0.4
24/05:10am 20.8 20.1 14.3 66 3.8 W 11 13 6 7 - - 0.2
24/05:00am 20.9 20.2 14.3 66 3.9 W 11 11 6 6 - - 0.0
24/04:50am 20.9 21.0 14.4 66 3.8 W 7 9 4 5 - - 0.0
24/04:40am 21.1 21.5 14.7 67 3.8 WSW 6 9 3 5 - - 0.0
24/04:30am 21.4 21.7 14.9 66 3.9 SSW 7 11 4 6 - - 0.0
24/04:20am 21.6 21.3 14.5 64 4.2 S 9 11 5 6 - - 0.0
24/04:10am 21.7 20.6 14.2 62 4.4 SSW 13 19 7 10 - - 0.0
24/04:00am 21.4 20.1 13.6 61 4.5 SSW 13 17 7 9 - - 0.0
24/03:50am 20.7 20.9 14.2 66 3.8 SSE 6 7 3 4 - - 0.0
24/03:40am 20.4 20.6 14.6 69 3.4 WSW 7 15 4 8 - - 0.0
24/03:30am 19.3 19.8 15.0 76 2.5 WNW 6 7 3 4 - - 0.0
24/03:20am 19.2 20.0 14.8 75 2.6 W 4 6 2 3 - - 0.0
24/03:10am 19.1 20.2 14.7 75 2.6 WSW 2 4 1 2 - - 0.0
24/03:00am 18.8 19.2 14.8 77 2.4 SSW 6 6 3 3 - - 0.0
24/02:50am 18.6 19.4 14.8 78 2.2 SSE 4 6 2 3 - - 0.0
24/02:40am 18.5 18.8 14.6 78 2.3 SE 6 6 3 3 - - 0.0
24/02:30am 18.5 19.2 14.6 78 2.3 SSE 4 4 2 2 - - 0.0
24/02:20am 18.6 19.7 14.7 78 2.3 SW 2 4 1 2 - - 0.0
24/02:10am 18.8 19.6 14.8 77 2.4 WSW 4 4 2 2 - - 0.0
24/02:00am 19.0 19.8 14.8 76 2.5 W 4 7 2 4 - - 0.0
24/01:50am 19.3 19.6 14.9 75 2.6 W 7 9 4 5 - - 0.0
24/01:40am 19.1 19.3 14.7 75 2.6 WSW 7 7 4 4 - - 0.0
24/01:30am 19.3 19.5 14.6 74 2.8 WSW 7 7 4 4 - - 0.0
24/01:20am 19.3 19.7 14.8 75 2.7 SW 6 6 3 3 - - 0.0
24/01:10am 19.2 20.0 14.9 76 2.5 SW 4 6 2 3 - - 0.0
24/01:00am 19.3 20.1 14.8 75 2.7 SW 4 6 2 3 - - 0.0
24/12:50am 19.2 20.1 15.0 76 2.5 SW 4 6 2 3 - - 0.0
24/12:40am 19.2 20.1 15.0 76 2.5 SW 4 7 2 4 - - 0.0
24/12:30am 19.1 20.4 15.1 77 2.4 S 2 4 1 2 - - 0.0
24/12:20am 19.0 20.2 15.0 77 2.4 SSE 2 4 1 2 - - 0.0
24/12:10am 19.1 19.9 14.9 76 2.5 SE 4 6 2 3 - - 0.0
24/12:00am 19.1 19.9 14.9 76 2.5 S 4 6 2 3 - - 0.0
 
Date/Time
EDT
Temp
°C
App
Temp
°C
Dew
Point
°C
Rel
Hum
%
Delta-T
°C
Wind Press
QNH
hPa
Press
MSL
hPa
Rain since
9am
mm
Dir  Spd
km/h
Gust
km/h
Spd
kts
Gust
kts
23/11:50pm 19.1 19.5 14.7 75 2.6 SSW 6 7 3 4 - - 0.0
23/11:40pm 19.4 19.8 14.7 74 2.8 SSW 6 7 3 4 - - 0.0
23/11:30pm 19.4 20.1 14.5 73 2.9 SW 4 6 2 3 - - 0.0
23/11:20pm 20.2 21.4 14.9 71 3.1 WNW 2 2 1 1 - - 0.0
23/11:10pm 20.1 21.6 14.7 71 3.2 CALM 0 0 0 0 - - 0.0
23/11:00pm 19.8 20.9 14.6 72 3.1 E 2 4 1 2 - - 0.0
23/10:50pm 20.1 20.4 14.4 69 3.3 E 6 6 3 3 - - 0.0
23/10:40pm 20.4 20.8 14.7 70 3.4 ESE 6 7 3 4 - - 0.0
23/10:30pm 20.8 21.3 14.9 69 3.5 SSE 6 6 3 3 - - 0.0
23/10:20pm 21.1 21.9 14.7 67 3.8 SE 4 6 2 3 - - 0.0
23/10:10pm 20.9 21.7 14.8 68 3.6 SSE 4 6 2 3 - - 0.0
23/10:00pm 20.8 21.6 14.7 68 3.6 SE 4 6 2 3 - - 0.0
23/09:50pm 21.1 21.3 14.3 65 4.0 SE 6 6 3 3 - - 0.0
23/09:40pm 21.3 21.6 14.5 65 4.0 SSE 6 7 3 4 - - 0.0
23/09:30pm 21.4 21.5 14.5 64 4.1 SSW 7 13 4 7 - - 0.0
23/09:20pm 22.2 22.4 14.6 62 4.5 SE 7 9 4 5 - - 0.0
23/09:10pm 23.1 23.4 14.9 60 4.9 E 7 9 4 5 - - 0.0
23/09:00pm 23.6 23.8 14.6 57 5.4 ENE 7 9 4 5 - - 0.0
23/08:50pm 23.8 24.0 14.7 56 5.5 ENE 7 9 4 5 - - 0.0
23/08:40pm 23.9 24.1 14.7 56 5.5 E 7 11 4 6 - - 0.0
23/08:30pm 24.1 24.3 14.8 56 5.6 E 7 9 4 5 - - 0.0
23/08:20pm 24.4 24.5 14.5 54 5.9 ENE 7 9 4 5 - - 0.0
23/08:10pm 24.6 24.7 14.5 53 6.1 ENE 7 7 4 4 - - 0.0
23/08:00pm 24.8 25.0 14.6 53 6.1 ENE 7 7 4 4 - - 0.0
23/07:50pm 25.2 25.0 14.6 51 6.4 NE 9 9 5 5 - - 0.0
23/07:40pm 25.5 25.6 14.5 50 6.6 NE 7 9 4 5 - - 0.0
23/07:30pm 25.7 25.8 14.4 49 6.8 NE 7 7 4 4 - - 0.0
23/07:20pm 26.1 26.2 14.4 48 7.0 NE 7 9 4 5 - - 0.0
23/07:10pm 26.6 26.6 14.1 46 7.5 NE 7 9 4 5 - - 0.0
23/07:00pm 27.1 27.0 13.8 44 8.0 NNE 7 9 4 5 - - 0.0
23/06:50pm 27.3 27.0 13.4 42 8.3 NNE 7 11 4 6 - - 0.0
23/06:40pm 27.5 26.7 12.8 40 8.7 NNE 9 11 5 6 - - 0.0
23/06:30pm 27.8 26.5 12.5 38 9.0 N 11 15 6 8 - - 0.0
23/06:20pm 28.4 26.7 12.6 37 9.3 NNE 13 15 7 8 - - 0.0
23/06:10pm 29.0 27.3 12.5 36 9.8 N 13 17 7 9 - - 0.0
23/06:00pm 28.9 26.5 12.6 36 9.7 NNE 17 20 9 11 - - 0.0
23/05:50pm 28.8 27.2 13.8 39 9.0 NE 15 19 8 10 - - 0.0
23/05:40pm 28.7 27.9 14.0 40 8.9 NNE 11 15 6 8 - - 0.0
23/05:30pm 27.8 27.0 13.9 42 8.4 NE 11 15 6 8 - - 0.0
23/05:20pm 27.3 26.3 14.7 46 7.7 NE 13 15 7 8 - - 0.0
23/05:10pm 26.9 25.9 14.7 47 7.4 NE 13 15 7 8 - - 0.0
23/05:00pm 26.5 25.1 14.5 47 7.3 NE 15 19 8 10 - - 0.0
23/04:50pm 26.3 24.5 14.5 48 7.1 NE 17 19 9 10 - - 0.0
23/04:40pm 26.2 24.5 14.7 49 7.0 NE 17 19 9 10 - - 0.0
23/04:30pm 26.1 24.5 15.0 50 6.8 NE 17 19 9 10 - - 0.0
23/04:20pm 25.8 24.2 14.9 51 6.6 ENE 17 19 9 10 - - 0.0
23/04:10pm 25.5 25.0 15.8 55 6.0 ENE 13 17 7 9 - - 0.0
23/04:00pm 25.5 25.3 15.8 55 6.0 ENE 11 15 6 8 - - 0.0
23/03:50pm 25.4 23.7 14.8 52 6.4 ENE 17 17 9 9 - - 0.0
23/03:40pm 25.5 23.8 14.7 51 6.5 ENE 17 19 9 10 - - 0.0
23/03:30pm 25.3 24.1 16.0 56 5.7 ENE 17 19 9 10 - - 0.0
23/03:20pm 25.1 23.2 14.3 51 6.5 ENE 17 20 9 11 - - 0.0
23/03:10pm 25.0 22.7 14.0 50 6.6 ENE 19 20 10 11 - - 0.0
23/03:00pm 25.3 23.3 14.0 49 6.7 ENE 17 19 9 10 - - 0.0
23/02:50pm 25.4 23.4 13.9 49 6.9 ENE 17 19 9 10 - - 0.0
23/02:40pm 25.3 22.9 13.7 48 6.9 NE 19 22 10 12 - - 0.0
23/02:30pm 24.9 22.9 13.9 50 6.5 NE 17 20 9 11 - - 0.0
23/02:20pm 24.6 22.3 14.0 51 6.3 ENE 19 20 10 11 - - 0.0
23/02:10pm 24.5 21.9 13.8 51 6.3 ENE 20 24 11 13 - - 0.0
23/02:00pm 24.6 22.2 13.7 50 6.5 ENE 19 22 10 12 - - 0.0
23/01:50pm 24.6 21.6 13.6 50 6.5 ENE 22 24 12 13 - - 0.0
23/01:40pm 24.6 21.9 13.6 50 6.5 ENE 20 24 11 13 - - 0.0
23/01:30pm 24.5 21.8 13.6 50 6.4 ENE 20 24 11 13 - - 0.0
23/01:20pm 24.4 21.7 13.5 50 6.4 E 20 24 11 13 - - 0.0
23/01:10pm 24.4 22.8 13.9 52 6.2 E 15 20 8 11 - - 0.0
23/01:00pm 24.7 22.1 13.9 51 6.4 ENE 20 24 11 13 - - 0.0
23/12:50pm 25.3 22.7 13.8 49 6.8 E 20 24 11 13 - - 0.0
23/12:40pm 24.3 21.7 13.3 50 6.5 E 19 24 10 13 - - 0.0
23/12:30pm 23.9 21.4 13.6 52 6.1 E 19 22 10 12 - - 0.0
23/12:20pm 24.0 21.9 13.6 52 6.1 E 17 19 9 10 - - 0.0
23/12:10pm 22.9 21.2 13.5 55 5.5 E 15 19 8 10 - - 0.0
23/12:00pm 22.7 20.7 13.9 57 5.2 ESE 17 19 9 10 - - 0.0
23/11:50am 22.8 20.8 13.8 57 5.3 ESE 17 19 9 10 - - 0.0
23/11:40am 22.8 22.1 14.4 59 5.0 ESE 11 13 6 7 - - 0.0
23/11:30am 23.1 23.4 13.4 54 5.7 N 4 6 2 3 - - 0.0
23/11:20am 23.0 23.1 12.8 52 5.9 N 4 7 2 4 - - 0.0
23/11:10am 22.6 22.8 13.0 54 5.6 NNW 4 6 2 3 - - 0.0
23/11:00am 22.6 21.5 13.1 55 5.5 ENE 11 19 6 10 - - 0.0
23/10:50am 22.5 20.2 12.9 54 5.6 E 17 19 9 10 - - 0.0
23/10:40am 22.5 19.8 13.0 55 5.5 E 19 24 10 13 - - 0.0
23/10:30am 22.4 19.5 13.0 55 5.4 E 20 24 11 13 - - 0.0
23/10:20am 22.6 19.9 13.0 54 5.6 ENE 19 24 10 13 - - 0.0
23/10:10am 22.5 20.9 12.9 54 5.6 ENE 13 19 7 10 - - 0.0
23/10:00am 22.0 21.6 13.0 56 5.2 NE 7 11 4 6 - - 0.0
23/09:50am 21.6 20.5 13.2 59 4.9 ENE 11 17 6 9 - - 0.0
23/09:40am 21.5 20.1 13.3 59 4.8 NE 13 15 7 8 - - 0.0
23/09:30am 21.1 20.4 13.2 60 4.6 NNE 9 13 5 7 - - 0.0
23/09:20am 20.9 19.0 13.1 61 4.5 NE 15 17 8 9 - - 0.0
23/09:10am 21.0 18.3 13.0 60 4.6 NE 19 20 10 11 - - 0.0
23/09:00am 21.1 18.2 13.0 60 4.7 NE 20 22 11 12 - - 0.0
23/08:50am 21.3 18.4 13.0 59 4.8 NE 20 24 11 13 - - 0.0
23/08:40am 21.4 18.7 12.8 58 4.9 NE 19 20 10 11 - - 0.0
23/08:30am 21.1 18.2 12.8 59 4.8 ENE 20 22 11 12 - - 0.0
23/08:20am 20.9 18.0 12.9 60 4.6 ENE 20 22 11 12 - - 0.0
23/08:10am 20.5 18.2 12.9 61 4.4 ENE 17 22 9 12 - - 0.0
23/08:00am 20.1 18.2 13.0 63 4.1 ENE 15 17 8 9 - - 0.0
23/07:50am 19.6 17.6 12.8 65 3.9 ENE 15 17 8 9 - - 0.0
23/07:40am 19.3 17.3 12.8 66 3.7 ENE 15 19 8 10 - - 0.0
23/07:30am 19.3 16.9 12.8 66 3.7 ENE 17 19 9 10 - - 0.0
23/07:20am 19.2 17.2 12.8 66 3.6 ENE 15 19 8 10 - - 0.0
23/07:10am 19.2 17.3 12.9 67 3.6 ENE 15 17 8 9 - - 0.0
23/07:00am 19.1 17.2 12.9 67 3.5 ENE 15 19 8 10 - - 0.0
23/06:50am 19.1 16.8 13.1 68 3.4 ENE 17 19 9 10 - - 0.0
23/06:40am 19.0 17.1 13.0 68 3.4 ENE 15 19 8 10 - - 0.0
23/06:30am 18.8 17.3 13.0 69 3.3 ENE 13 15 7 8 - - 0.0
23/06:20am 18.4 17.7 13.1 71 3.0 ENE 9 11 5 6 - - 0.0
23/06:10am 18.3 17.6 13.1 71 3.0 ENE 9 11 5 6 - - 0.0
23/06:00am 18.1 17.4 13.2 73 2.8 ENE 9 9 5 5 - - 0.0
23/05:50am 17.9 17.6 13.2 74 2.7 NE 7 9 4 5 - - 0.0
23/05:40am 17.8 17.7 13.2 74 2.6 NE 6 6 3 3 - - 0.0
23/05:30am 17.8 17.7 13.2 74 2.6 NE 6 6 3 3 - - 0.0
23/05:20am 17.6 17.5 13.4 76 2.4 ENE 6 6 3 3 - - 0.0
23/05:10am 17.7 17.7 13.6 77 2.3 ENE 6 6 3 3 - - 0.0
23/05:00am 17.8 17.6 13.7 77 2.4 E 7 9 4 5 - - 0.0
23/04:50am 17.7 17.5 13.6 77 2.3 E 7 9 4 5 - - 0.0
23/04:40am 17.5 17.4 13.9 79 2.1 E 7 7 4 4 - - 0.0
23/04:30am 17.6 17.5 14.0 79 2.1 E 7 7 4 4 - - 0.0
23/04:20am 17.5 17.4 14.0 80 2.0 E 7 9 4 5 - - 0.0
23/04:10am 17.5 17.4 14.0 80 2.0 E 7 7 4 4 - - 0.0
23/04:00am 17.5 17.5 14.1 80 2.0 E 7 9 4 5 - - 0.0
23/03:50am 17.6 17.2 14.2 80 2.0 E 9 11 5 6 - - 0.0
23/03:40am 17.7 17.3 14.2 80 2.0 E 9 11 5 6 - - 0.0
23/03:30am 17.8 17.4 14.2 79 2.1 E 9 11 5 6 - - 0.0
23/03:20am 17.9 17.5 14.2 79 2.1 ESE 9 9 5 5 - - 0.0
23/03:10am 17.9 17.6 14.3 79 2.1 ESE 9 9 5 5 - - 0.0
23/03:00am 17.9 17.9 14.3 79 2.1 ESE 7 9 4 5 - - 0.0
23/02:50am 17.8 17.8 14.2 79 2.1 E 7 9 4 5 - - 0.0
23/02:40am 17.4 17.0 14.1 81 1.9 ESE 9 9 5 5 - - 0.0
23/02:30am 17.3 16.9 14.1 81 1.8 ESE 9 9 5 5 - - 0.0
23/02:20am 17.1 16.3 14.1 82 1.7 ESE 11 11 6 6 - - 0.0
23/02:00am 16.7 16.3 14.0 84 1.5 SE 9 11 5 6 - - 0.0
23/01:50am 16.9 16.8 13.9 82 1.7 ESE 7 9 4 5 - - 0.0
23/01:40am 16.3 16.3 13.6 84 1.5 E 6 6 3 3 - - 0.0
23/01:30am 16.0 16.0 13.7 86 1.3 ESE 6 6 3 3 - - 0.0
23/01:20am 16.7 17.1 13.6 82 1.8 ESE 4 6 2 3 - - 0.0
23/01:10am 17.1 17.9 13.8 81 1.9 SE 2 4 1 2 - - 0.0
23/01:00am 17.5 18.5 14.3 81 1.9 SSW 2 4 1 2 - - 0.0
23/12:50am 18.4 19.0 14.2 76 2.4 NNW 4 6 2 3 - - 0.0
23/12:40am 18.8 19.4 14.2 74 2.7 NE 4 4 2 2 - - 0.0
23/12:30am 18.8 19.0 14.1 74 2.7 ENE 6 6 3 3 - - 0.0
23/12:20am 18.8 18.4 14.2 74 2.7 E 9 11 5 6 - - 0.0
23/12:10am 18.7 18.3 14.1 74 2.7 E 9 11 5 6 - - 0.0
23/12:00am 18.8 18.7 14.0 73 2.8 E 7 7 4 4 - - 0.0
 
Date/Time
EDT
Temp
°C
App
Temp
°C
Dew
Point
°C
Rel
Hum
%
Delta-T
°C
Wind Press
QNH
hPa
Press
MSL
hPa
Rain since
9am
mm
Dir  Spd
km/h
Gust
km/h
Spd
kts
Gust
kts
22/11:50pm 19.1 19.0 14.0 72 3.0 E 7 7 4 4 - - 0.0
22/11:40pm 19.2 19.4 14.1 72 3.0 E 6 7 3 4 - - 0.0
22/11:30pm 19.6 19.8 14.1 70 3.2 ESE 6 7 3 4 - - 0.0
22/11:20pm 19.9 19.9 14.1 69 3.4 E 7 9 4 5 - - 0.0
22/11:10pm 20.1 19.7 14.2 69 3.5 E 9 9 5 5 - - 0.0
22/11:00pm 20.2 19.8 14.0 67 3.6 E 9 11 5 6 - - 0.0
22/10:50pm 20.1 19.3 13.9 67 3.6 E 11 13 6 7 - - 0.0
22/10:40pm 19.8 19.3 13.7 68 3.5 E 9 9 5 5 - - 0.0
22/10:30pm 19.6 19.0 13.5 68 3.5 E 9 9 5 5 - - 0.0
22/10:20pm 19.1 18.9 13.5 70 3.2 E 7 9 4 5 - - 0.0
22/10:10pm 19.3 19.4 13.8 70 3.2 ESE 6 7 3 4 - - 0.0
22/10:00pm 19.9 20.3 13.8 68 3.5 E 4 6 2 3 - - 0.0
22/09:50pm 20.2 20.0 13.6 66 3.8 E 7 7 4 4 - - 0.0
22/09:40pm 20.0 19.8 13.6 66 3.7 E 7 9 4 5 - - 0.0
22/09:30pm 20.3 20.4 13.9 66 3.7 ESE 6 7 3 4 - - 0.0
22/09:20pm 20.8 20.9 13.9 64 4.0 E 6 7 3 4 - - 0.0

Other formats

Comma delimited format used in spreadsheet applications
http://www.bom.gov.au/fwo/IDN60801/IDN60801.99998.axf

JavaScript Object Notation format (JSON) in row-major order
http://www.bom.gov.au/fwo/IDN60801/IDN60801.99998.json

Data quality

Most of these data are generated automatically and are frequently updated. Quality checks on data are not normally performed. It is possible for incorrect values to appear. Refer to information at About Latest Weather Observations and please check the disclaimer before using these data.